Storm Events Database

Event Details

Event Hail
Magnitude 1.00 in.
State TEXAS
County/Area LIBERTY
WFO HGX
Report Source Public
NCDC Data Source CSV
Begin Date 2009-03-27 15:35:00.0 CST-6
Begin Location 1ESE CLEVELAND
Begin Lat/Lon 30.35/-95.09
End Date 2009-03-27 15:35:00.0 CST-6
Deaths Direct/Indirect 0/0 (fatality details below, when available...)
Injuries Direct/Indirect 0/0
Property Damage 1.00K
Crop Damage 0.00K
Episode Narrative Scattered thunderstorms developed ahead of an approaching dry line and cold front ushered into the area by a strong upper level low pressure system moving across the Texas/Oklahoma border. Thunderstorms first developed during the mid-morning hours near Austin and spread eastward into Burleson and Brazos counties by 11 AM. Additional activity later in the day began with a cell forming near Brenham that became severe and prompted several severe thunderstorm and tornado warnings as it moved east across portions of Grimes, Montgomery, and Liberty counties. Additional thunderstorm development to the south of this storm produced numerous reports of hail up to the size of baseballs in Harris County, including reports at both Bush Intercontinental and William P. Hobby airports. The event ended as the thunderstorms moved out of the Houston/Galveston County Warning Area by 7 PM.
Event Narrative Quarter-size hail was reported within the town of Cleveland.


     ‚Äč



All events for this episode:

Location County/Zone St. Date Time T.Z. Type Mag Dth Inj PrD CrD
Totals: 0 0 201.00K 0.00K
LYONS BURLESON CO. TX 03/27/2009 11:00 CST-6 Hail 0.88 in. 0 0 0.00K 0.00K
SNOOK BURLESON CO. TX 03/27/2009 11:17 CST-6 Funnel Cloud 0 0 0.00K 0.00K
MADISONVILLE MADISON CO. TX 03/27/2009 12:43 CST-6 Hail 0.88 in. 0 0 0.00K 0.00K
WHITE HALL GRIMES CO. TX 03/27/2009 14:11 CST-6 Hail 0.88 in. 0 0 0.00K 0.00K
MOSTYN MONTGOMERY CO. TX 03/27/2009 14:17 CST-6 Hail 1.00 in. 0 0 1.00K 0.00K
GRANGER MONTGOMERY CO. TX 03/27/2009 14:35 CST-6 Hail 0.75 in. 0 0 0.00K 0.00K
WILLIS MONTGOMERY CO. TX 03/27/2009 14:38 CST-6 Hail 1.00 in. 0 0 1.00K 0.00K
LAKE CONROE DAM MONTGOMERY CO. TX 03/27/2009 14:39 CST-6 Hail 0.88 in. 0 0 0.00K 0.00K
CONROE MONTGOMERY CO. TX 03/27/2009 15:06 CST-6 Hail 1.75 in. 0 0 20.00K 0.00K
BEACH MONTGOMERY CO. TX 03/27/2009 15:07 CST-6 Hail 1.00 in. 0 0 1.00K 0.00K
CUT AND SHOOT MONTGOMERY CO. TX 03/27/2009 15:15 CST-6 Hail 1.75 in. 0 0 15.00K 0.00K
TAMINA MONTGOMERY CO. TX 03/27/2009 15:15 CST-6 Hail 1.00 in. 0 0 1.00K 0.00K
FOSTORIA MONTGOMERY CO. TX 03/27/2009 15:21 CST-6 Hail 2.75 in. 0 0 15.00K 0.00K
EXCELSIOR LIBERTY CO. TX 03/27/2009 15:30 CST-6 Hail 2.00 in. 0 0 18.00K 0.00K
CLEVELAND LIBERTY CO. TX 03/27/2009 15:32 CST-6 Tornado EF0 0 0 35.00K 0.00K
CLEVELAND LIBERTY CO. TX 03/27/2009 15:35 CST-6 Hail 1.00 in. 0 0 1.00K 0.00K
CLEVELAND LIBERTY CO. TX 03/27/2009 15:40 CST-6 Hail 1.75 in. 0 0 15.00K 0.00K
CLEVELAND LIBERTY CO. TX 03/27/2009 15:41 CST-6 Thunderstorm Wind 56 kts. EG 0 0 15.00K 0.00K
JETERO HARRIS CO. TX 03/27/2009 15:41 CST-6 Hail 0.75 in. 0 0 0.00K 0.00K
(IAH)HOUSTON INTL AR HARRIS CO. TX 03/27/2009 15:54 CST-6 Hail 1.75 in. 0 0 7.00K 0.00K
HUMBLE HARRIS CO. TX 03/27/2009 16:00 CST-6 Hail 1.00 in. 0 0 5.00K 0.00K
HUMBLE HARRIS CO. TX 03/27/2009 16:00 CST-6 Hail 1.00 in. 0 0 5.00K 0.00K
(HOU)HOBBY ARPT HARRIS CO. TX 03/27/2009 16:01 CST-6 Hail 0.75 in. 0 0 0.00K 0.00K
HUMBLE HARRIS CO. TX 03/27/2009 16:04 CST-6 Hail 1.00 in. 0 0 3.00K 0.00K
MOONSHINE HILL HARRIS CO. TX 03/27/2009 16:04 CST-6 Hail 1.75 in. 0 0 8.00K 0.00K
PORTER MONTGOMERY CO. TX 03/27/2009 16:04 CST-6 Hail 1.00 in. 0 0 2.00K 0.00K
HUMBLE HARRIS CO. TX 03/27/2009 16:05 CST-6 Hail 2.00 in. 0 0 21.00K 0.00K
HUMBLE HARRIS CO. TX 03/27/2009 16:05 CST-6 Hail 1.75 in. 0 0 2.00K 0.00K
HUMBLE HARRIS CO. TX 03/27/2009 16:07 CST-6 Hail 1.00 in. 0 0 1.00K 0.00K
VICTOR HARRIS CO. TX 03/27/2009 16:25 CST-6 Hail 0.75 in. 0 0 0.00K 0.00K
DAYTON SEABERG ARPT LIBERTY CO. TX 03/27/2009 16:30 CST-6 Hail 1.75 in. 0 0 3.00K 0.00K
ALTA VISTA HARRIS CO. TX 03/27/2009 16:34 CST-6 Hail 0.75 in. 0 0 0.00K 0.00K
GOLDEN ACRES HARRIS CO. TX 03/27/2009 16:37 CST-6 Hail 0.88 in. 0 0 0.00K 0.00K
DEER PARK HARRIS CO. TX 03/27/2009 16:38 CST-6 Hail 1.00 in. 0 0 2.00K 0.00K
LIBERTY LIBERTY CO. TX 03/27/2009 16:40 CST-6 Hail 1.75 in. 0 0 4.00K 0.00K
Totals: 0 0 201.00K 0.00K